Impacts TAF Board INFO
FOR SITUATIONAL AWARENESS. NOT TO BE USED FOR FLIGHT PLANNING PURPOSES.
IDs:

KEWR - Newark Intl, NJ, US

Issued at 1823 UTC 17 Jul 2018
Updated at 1936 UTC 17 Jul 2018
Potential Impact None Slight Moderate High
Time<<18/20Z 18/21Z 18/22Z 18/23Z 19/00Z 19/01Z 19/02Z 19/03Z 19/04Z 19/05Z 19/06Z 19/07Z 19/08Z
Type PRVL PRVL PRVL PRVL
VIS >6 >6 >6 >6
CIG -- -- -- --
Cover SKC SKC SKC SKC
FltCat VFR VFR VFR VFR
WX -- -- -- --
WDir 350 350 350 350
WSpd 12 12 12 12
WGst -- -- -- --

Raw TAF
KEWR 171823Z 1718/1824 23012G19KT P6SM VCTS FEW035 BKN050CB
  TEMPO 1719/1721 31015G25KT 2SM +TSRA BR SCT015 OVC050CB
  FM172100 27008KT P6SM VCSH BKN050
  TEMPO 1800/1802 3SM SHRA SCT015 BKN050
  FM180200 32006KT P6SM VCSH SCT050 BKN120
  FM180700 34006KT P6SM FEW050 SCT120
  FM181200 35010KT P6SM SCT250
  FM181800 35012KT P6SM SKC


METAR Board
Radar Display
Forecast Discussion

FOR SITUATIONAL AWARENESS. NOT TO BE USED FOR FLIGHT PLANNING PURPOSES.